Dobrodošli na spletni strani vremenske postaje Senovo. Vse informacije so informativnega značaja, saj vremenska postaja ni del državne mreže meteoroloških postaj. AKTUALNIH OBVESTIL NI.


Posebna pozornost v zvezi z vremenskimi dogajanji ni potrebna.    Posebna pozornost v zvezi z vremenskimi dogajanji ni potrebna.

Pogled proti Armezu več informacij Pogled proti Armezu


Lisca več informacij Lisca


Radar strel več informacij blitzortung!


Radar padavin več informacij rain snow radar


Obiščite še:

Template documentation
and downloads

And another site



Weather Underground, zgodovina - Tekstovno

Dnevni povzetek za Februar 11, 2018 Enote:  Metrično    Angleško   Obe
« Predhodni Dan
Naslednji Dan »
Dnevni Tedenski Mesečni Letni Po meri
  Višja: Nižja: Povprečje:
Temperatura: -17.8 °C -19.4 °C -17.6 °C
Točka rosišča: -17.8 °C -21.7 °C -20 °C
Vlažnost: Humidity % 51 % 74 %
Hitrost vetra: 0 km/h 0 km/h 1.9 km/h
Sunki vetra: 0 km/h - -
Veter:- - SSW
Zračni tlak: 0 hPa 34097 hPa -
Padavine: 0 mm    
Historical Graphs
 
 
Tabelarni podarki za Februar 11, 2018
Čas Temperatura Točka rosišča Zračni tlak Veter Hitrost vetra Sunki vetra Vlažnost Intenziteta padavin (urna)
-17.8 °C -17.8 °C 0 hPa Calm     Humidity % 0 mm
00:01 -17.2 °C -19.4 °C 34303.6 hPa SE 8.5 km/h 15.6 km/h 75 % 0 mm
00:06 -17.3 °C -19.5 °C 34303.6 hPa SE 6.8 km/h 10.3 km/h 75 % 0 mm
00:11 -17.3 °C -19.5 °C 34303.6 hPa ESE 5.1 km/h 9.8 km/h 75 % 0 mm
00:16 -17.3 °C -19.3 °C 34303.6 hPa ESE 4.7 km/h 8 km/h 76 % 0 mm
00:21 -17.3 °C -19.3 °C 34303.6 hPa ESE 5.6 km/h 8 km/h 76 % 0 mm
00:26 -17.3 °C -19.3 °C 34303.6 hPa SE 4.7 km/h 7.6 km/h 76 % 0 mm
00:28 -17.3 °C -19.4 °C 34303.6 hPa SE 4.3 km/h 7.6 km/h 76 % 0 mm
00:33 -17.4 °C -19.5 °C 34303.6 hPa SSE 3.7 km/h 6.4 km/h 76 % 0 mm
00:38 -17.4 °C -19.5 °C 34303.6 hPa SE 4.2 km/h 8 km/h 76 % 0 mm
00:43 -17.4 °C -19.6 °C 34303.6 hPa ESE 2.1 km/h 8 km/h 76 % 0 mm
00:48 -17.4 °C -19.6 °C 34303.6 hPa Calm     76 % 0 mm
00:53 -17.5 °C -19.6 °C 34303.6 hPa West 0.3 km/h 5.1 km/h 76 % 0 mm
00:58 -17.5 °C -19.6 °C 34303.6 hPa WSW 1.3 km/h 7.6 km/h 76 % 0 mm
01:03 -17.5 °C -19.6 °C 34303.6 hPa SW 1.3 km/h 7.6 km/h 76 % 0 mm
01:08 -17.6 °C -19.6 °C 34303.6 hPa SSW 0.8 km/h 3.4 km/h 76 % 0 mm
01:13 -17.6 °C -19.6 °C 34303.6 hPa SSW 0.3 km/h 3.4 km/h 76 % 0 mm
01:18 -17.6 °C -19.6 °C 34303.6 hPa South 1 km/h 5.1 km/h 76 % 0 mm
01:23 -17.6 °C -19.6 °C 34303.6 hPa SSE 1.6 km/h 5.1 km/h 76 % 0 mm
01:28 -17.6 °C -19.6 °C 34303.6 hPa SSE 0.8 km/h 6.9 km/h 77 % 0 mm
01:33 -17.6 °C -19.6 °C 34303.6 hPa SE 2.1 km/h 7.6 km/h 77 % 0 mm
01:38 -17.6 °C -19.6 °C 34303.6 hPa SE 2.9 km/h 7.6 km/h 77 % 0 mm
01:43 -17.6 °C -19.6 °C 34303.6 hPa SE 2.3 km/h 5.6 km/h 77 % 0 mm
01:48 -17.6 °C -19.6 °C 34303.6 hPa SSE 2.6 km/h 6.4 km/h 77 % 0 mm
01:53 -17.6 °C -19.6 °C 34303.6 hPa SSE 1.3 km/h 6.4 km/h 77 % 0 mm
01:58 -17.6 °C -19.6 °C 34303.6 hPa ESE 1 km/h 7.6 km/h 77 % 0 mm
02:03 -17.6 °C -19.6 °C 34303.6 hPa ESE 1 km/h 7.6 km/h 77 % 0 mm
02:08 -17.6 °C -19.6 °C 34303.6 hPa Calm     77 % 0 mm
02:13 -17.6 °C -19.6 °C 34303.6 hPa Calm     77 % 0 mm
02:19 -17.6 °C -19.6 °C 34303.6 hPa SSE 0.5 km/h 7.6 km/h 77 % 0 mm
02:24 -17.7 °C -19.6 °C 34269.7 hPa SE 2.1 km/h 7.6 km/h 77 % 0 mm
02:29 -17.7 °C -19.6 °C 34269.7 hPa SE 2.1 km/h 6.4 km/h 77 % 0 mm
02:34 -17.7 °C -19.7 °C 34269.7 hPa SE 0.8 km/h 4.2 km/h 77 % 0 mm
02:39 -17.7 °C -19.7 °C 34269.7 hPa SE 0.5 km/h 6.4 km/h 77 % 0 mm
02:44 -17.7 °C -19.6 °C 34269.7 hPa SE 1.6 km/h 6.4 km/h 78 % 0 mm
02:49 -17.8 °C -19.7 °C 34269.7 hPa East 2.1 km/h 6.9 km/h 78 % 0 mm
02:54 -17.7 °C -19.6 °C 34269.7 hPa ESE 2.1 km/h 10.3 km/h 78 % 0 mm
02:59 -17.7 °C -19.6 °C 34269.7 hPa SE 2.1 km/h 10.3 km/h 78 % 0 mm
03:04 -17.7 °C -19.6 °C 34269.7 hPa ESE 0.8 km/h 5.6 km/h 78 % 0 mm
03:09 -17.7 °C -19.6 °C 34269.7 hPa Calm     78 % 0 mm
03:14 -17.9 °C -19.8 °C 34269.7 hPa Calm   5.6 km/h 78 % 0 mm
03:19 -17.9 °C -19.8 °C 34269.7 hPa NW 0.8 km/h 5.6 km/h 78 % 0 mm
03:24 -17.9 °C -19.8 °C 34269.7 hPa WSW 1.3 km/h 6.4 km/h 78 % 0 mm
03:29 -17.9 °C -19.8 °C 34269.7 hPa SW 3.1 km/h 6.9 km/h 78 % 0 mm
03:34 -18.2 °C -20.1 °C 34269.7 hPa SW 2.3 km/h 6.9 km/h 78 % 0 mm
03:39 -18.2 °C -20.1 °C 34269.7 hPa Calm   2.9 km/h 78 % 0 mm
03:44 -18.3 °C -20.2 °C 34269.7 hPa SSW 1 km/h 7.6 km/h 78 % 0 mm
03:49 -18.4 °C -20.3 °C 34269.7 hPa SSW 1 km/h 7.6 km/h 78 % 0 mm
03:54 -18.4 °C -20.3 °C 34269.7 hPa Calm     78 % 0 mm
03:59 -18.4 °C -20.3 °C 34269.7 hPa Calm     78 % 0 mm
04:04 -18.6 °C -20.4 °C 34269.7 hPa Calm     78 % 0 mm
04:09 -18.6 °C -20.4 °C 34269.7 hPa Calm     78 % 0 mm
04:14 -18.7 °C -20.5 °C 34269.7 hPa Calm     78 % 0 mm
04:19 -18.7 °C -20.6 °C 34269.7 hPa Calm     78 % 0 mm
04:24 -18.7 °C -20.5 °C 34269.7 hPa Calm     79 % 0 mm
04:29 -18.7 °C -20.5 °C 34269.7 hPa Calm     79 % 0 mm
04:34 -18.7 °C -20.5 °C 34269.7 hPa Calm     79 % 0 mm
04:39 -18.7 °C -20.5 °C 34269.7 hPa SSW 0.3 km/h 5.6 km/h 79 % 0 mm
04:44 -18.7 °C -20.5 °C 34269.7 hPa SSW 0.5 km/h 5.6 km/h 79 % 0 mm
04:49 -18.7 °C -20.4 °C 34269.7 hPa NNW 0.5 km/h 3.4 km/h 79 % 0 mm
04:54 -18.7 °C -20.4 °C 34269.7 hPa Calm   4.2 km/h 79 % 0 mm
04:59 -18.7 °C -20.3 °C 34269.7 hPa West 0.5 km/h 4.2 km/h 80 % 0 mm
05:04 -18.7 °C -20.3 °C 34269.7 hPa West 0.5 km/h 4.2 km/h 80 % 0 mm
05:09 -18.7 °C -20.3 °C 34269.7 hPa Calm     80 % 0 mm
05:14 -18.7 °C -20.3 °C 34269.7 hPa Calm     80 % 0 mm
05:19 -18.7 °C -20.3 °C 34269.7 hPa Calm     80 % 0 mm
05:24 -18.7 °C -20.3 °C 34269.7 hPa Calm     80 % 0 mm
05:29 -18.7 °C -20.4 °C 34269.7 hPa Calm     80 % 0 mm
05:31 -18.8 °C -20.4 °C 34269.7 hPa Calm     80 % 0 mm
05:36 -18.8 °C -20.4 °C 34269.7 hPa Calm     80 % 0 mm
05:41 -18.8 °C -20.5 °C 34269.7 hPa Calm     80 % 0 mm
05:46 -18.9 °C -20.4 °C 34269.7 hPa Calm     81 % 0 mm
05:51 -19 °C -20.6 °C 34269.7 hPa Calm     81 % 0 mm
05:56 -19 °C -20.6 °C 34235.8 hPa Calm     81 % 0 mm
06:01 -19.1 °C -20.6 °C 34235.8 hPa Calm     81 % 0 mm
06:06 -19.1 °C -20.7 °C 34235.8 hPa Calm     81 % 0 mm
06:11 -19.2 °C -20.8 °C 34269.7 hPa Calm     81 % 0 mm
06:16 -19.2 °C -20.8 °C 34269.7 hPa Calm     81 % 0 mm
06:21 -19.3 °C -20.9 °C 34269.7 hPa SW 0.3 km/h 6.4 km/h 81 % 0 mm
06:26 -19.3 °C -20.9 °C 34269.7 hPa WNW 0.8 km/h 6.4 km/h 81 % 0 mm
06:31 -19.3 °C -20.8 °C 34269.7 hPa NW 2.3 km/h 5.6 km/h 82 % 0 mm
06:36 -19.3 °C -20.8 °C 34269.7 hPa NW 1.8 km/h 5.6 km/h 82 % 0 mm
06:41 -19.3 °C -20.8 °C 34235.8 hPa North 0.3 km/h   82 % 0 mm
06:46 -19.3 °C -20.7 °C 34235.8 hPa Calm     82 % 0 mm
06:51 -19.3 °C -20.7 °C 34235.8 hPa Calm     82 % 0 mm
06:56 -19.2 °C -20.6 °C 34269.7 hPa Calm     83 % 0 mm
07:01 -19.2 °C -20.6 °C 34269.7 hPa Calm     83 % 0 mm
07:06 -19.2 °C -20.6 °C 34269.7 hPa Calm     83 % 0 mm
07:11 -19.2 °C -20.6 °C 34269.7 hPa Calm     83 % 0 mm
07:16 -19.2 °C -20.6 °C 34269.7 hPa Calm     83 % 0 mm
07:21 -19.2 °C -20.6 °C 34269.7 hPa Calm     83 % 0 mm
07:26 -19.2 °C -20.6 °C 34269.7 hPa Calm     83 % 0 mm
07:31 -19.3 °C -20.6 °C 34269.7 hPa Calm     84 % 0 mm
07:36 -19.3 °C -20.6 °C 34269.7 hPa Calm     84 % 0 mm
07:41 -19.3 °C -20.6 °C 34269.7 hPa Calm     84 % 0 mm
07:46 -19.3 °C -20.6 °C 34269.7 hPa Calm     84 % 0 mm
07:51 -19.3 °C -20.6 °C 34269.7 hPa Calm     84 % 0 mm
07:56 -19.4 °C -20.7 °C 34269.7 hPa Calm     84 % 0 mm
08:01 -19.3 °C -20.6 °C 34269.7 hPa South 0.5 km/h 4.2 km/h 84 % 0 mm
08:06 -19.3 °C -20.6 °C 34269.7 hPa South 0.5 km/h 4.2 km/h 84 % 0 mm
08:11 -19.3 °C -20.6 °C 34269.7 hPa Calm     84 % 0 mm
08:16 -19.3 °C -20.6 °C 34269.7 hPa Calm     84 % 0 mm
08:21 -19.3 °C -20.5 °C 34269.7 hPa Calm     85 % 0 mm
08:26 -19.3 °C -20.5 °C 34269.7 hPa Calm     85 % 0 mm
08:31 -19.2 °C -20.4 °C 34269.7 hPa Calm     85 % 0 mm
08:36 -19.2 °C -20.4 °C 34269.7 hPa Calm     85 % 0 mm
08:41 -19.2 °C -20.4 °C 34269.7 hPa Calm     85 % 0 mm
08:46 -19.1 °C -20.3 °C 34269.7 hPa Calm     85 % 0 mm
08:51 -19 °C -20.1 °C 34269.7 hPa Calm     86 % 0 mm
08:56 -18.9 °C -20.1 °C 34269.7 hPa Calm     86 % 0 mm
09:01 -18.8 °C -19.9 °C 34269.7 hPa Calm     86 % 0 mm
09:06 -18.7 °C -19.8 °C 34269.7 hPa Calm     86 % 0 mm
09:11 -18.6 °C -19.8 °C 34269.7 hPa SSE 0.3 km/h 3.4 km/h 86 % 0 mm
09:16 -18.6 °C -19.7 °C 34269.7 hPa SSE 0.5 km/h 3.4 km/h 86 % 0 mm
09:21 -18.5 °C -19.6 °C 34269.7 hPa SSE 0.5 km/h 3.4 km/h 86 % 0 mm
09:26 -18.3 °C -19.4 °C 34269.7 hPa SSE 0.5 km/h 3.4 km/h 87 % 0 mm
09:32 -18.2 °C -19.3 °C 34269.7 hPa SSE 0.3 km/h 3.4 km/h 86 % 0 mm
09:37 -18.2 °C -19.3 °C 34269.7 hPa ESE 1.6 km/h 5.6 km/h 86 % 0 mm
09:42 -18.1 °C -19.1 °C 34269.7 hPa SE 2.3 km/h 6.4 km/h 87 % 0 mm
09:47 -17.9 °C -19 °C 34269.7 hPa South 3.4 km/h 9.8 km/h 87 % 0 mm
09:52 -17.8 °C -18.9 °C 34269.7 hPa SSW 5.5 km/h 9.8 km/h 87 % 0 mm
09:57 -17.7 °C -18.7 °C 34269.7 hPa South 6.8 km/h 8.9 km/h 87 % 0 mm
10:02 -17.6 °C -18.6 °C 34269.7 hPa South 6.8 km/h 8.9 km/h 87 % 0 mm
10:07 -17.5 °C -18.6 °C 34269.7 hPa SSW 6 km/h 7.6 km/h 87 % 0 mm
10:12 -17.4 °C -18.4 °C 34269.7 hPa SSW 4.3 km/h 7.6 km/h 87 % 0 mm
10:17 -17.3 °C -18.3 °C 34269.7 hPa SSW 4.7 km/h 9.3 km/h 88 % 0 mm
10:22 -17.2 °C -18.3 °C 34269.7 hPa SSW 6.3 km/h 9.8 km/h 87 % 0 mm
10:27 -17.1 °C -18.2 °C 34269.7 hPa SSW 6.8 km/h 9.8 km/h 87 % 0 mm
10:32 -17 °C -18.1 °C 34269.7 hPa South 6.3 km/h 8.9 km/h 87 % 0 mm
10:37 -16.9 °C -17.9 °C 34269.7 hPa SSW 4.7 km/h 9.3 km/h 87 % 0 mm
10:42 -16.8 °C -17.9 °C 34269.7 hPa SSW 4.3 km/h 9.3 km/h 87 % 0 mm
10:47 -16.8 °C -17.8 °C 34269.7 hPa SSW 5.5 km/h 7.6 km/h 87 % 0 mm
10:52 -16.7 °C -17.8 °C 34269.7 hPa SSW 5.5 km/h 8 km/h 87 % 0 mm
10:57 -16.6 °C -17.8 °C 34269.7 hPa SSW 5.5 km/h 8 km/h 86 % 0 mm
11:02 -16.6 °C -17.7 °C 34269.7 hPa SSW 6.3 km/h 8 km/h 86 % 0 mm
11:07 -16.4 °C -17.6 °C 34269.7 hPa SSW 6.3 km/h 9.3 km/h 86 % 0 mm
11:12 -16.2 °C -17.4 °C 34269.7 hPa SSW 6.3 km/h 9.8 km/h 86 % 0 mm
11:17 -16.2 °C -17.4 °C 34269.7 hPa SSW 5 km/h 9.8 km/h 86 % 0 mm
11:22 -16.2 °C -17.4 °C 34269.7 hPa SSW 4.2 km/h 9.8 km/h 86 % 0 mm
11:27 -15.9 °C -17.2 °C 34235.8 hPa SW 5.5 km/h 15 km/h 85 % 0 mm
11:32 -15.8 °C -17.1 °C 34235.8 hPa SSW 5.6 km/h 15 km/h 84 % 0 mm
11:37 -15.6 °C -17 °C 34235.8 hPa SSW 2.6 km/h 7.6 km/h 83 % 0 mm
11:42 -15.5 °C -17 °C 34235.8 hPa WSW 0.8 km/h 10.3 km/h 83 % 0 mm
11:47 -15.5 °C -17 °C 34235.8 hPa SW 3.1 km/h 10.3 km/h 83 % 0 mm
11:52 -15.5 °C -17 °C 34235.8 hPa SW 3.9 km/h 8 km/h 83 % 0 mm
11:57 -15.1 °C -16.8 °C 34235.8 hPa SW 3.1 km/h 7.6 km/h 80 % 0 mm
12:02 -15.1 °C -16.8 °C 34235.8 hPa ESE 3.4 km/h 7.6 km/h 80 % 0 mm
12:05 -15.1 °C -16.8 °C 34235.8 hPa ENE 3.4 km/h 8.9 km/h 80 % 0 mm
12:10 -15.1 °C -17.1 °C 34235.8 hPa ENE 6 km/h 9.8 km/h 78 % 0 mm
12:15 -15.1 °C -17.1 °C 34235.8 hPa ESE 6 km/h 9.8 km/h 78 % 0 mm
12:20 -15.1 °C -17.1 °C 34235.8 hPa SW 5.5 km/h 8.9 km/h 78 % 0 mm
12:25 -14.8 °C -17.1 °C 34269.7 hPa South 4.7 km/h 9.8 km/h 75 % 0 mm
12:30 -14.8 °C -17.1 °C 34269.7 hPa SSE 5.5 km/h 16.9 km/h 75 % 0 mm
12:35 -14.7 °C -17.2 °C 34269.7 hPa SE 5.1 km/h 16.9 km/h 73 % 0 mm
12:40 -14.7 °C -17.2 °C 34235.8 hPa East 3.7 km/h 12.7 km/h 73 % 0 mm
12:45 -14.7 °C -17.2 °C 34235.8 hPa East 4.7 km/h 10.3 km/h 73 % 0 mm
12:50 -14.7 °C -17.2 °C 34235.8 hPa ESE 6.3 km/h 16.9 km/h 73 % 0 mm
12:55 -14.7 °C -17.2 °C 34198.6 hPa ESE 8.2 km/h 16.9 km/h 73 % 0 mm
13:00 -14.7 °C -17.6 °C 34198.6 hPa ESE 10.3 km/h 22 km/h 69 % 0 mm
13:05 -14.7 °C -17.6 °C 34198.6 hPa ESE 10.3 km/h 22 km/h 69 % 0 mm
13:10 -14.7 °C -18.1 °C 34198.6 hPa East 6.4 km/h 12.2 km/h 65 % 0 mm
13:15 -14.7 °C -18 °C 34198.6 hPa SSW 4.7 km/h 9.8 km/h 65 % 0 mm
13:20 -14.7 °C -18.2 °C 34198.6 hPa SW 6.3 km/h 11.1 km/h 64 % 0 mm
13:25 -14.7 °C -18.2 °C 34164.7 hPa WSW 6.3 km/h 12.7 km/h 64 % 0 mm
13:30 -14.7 °C -18.2 °C 34164.7 hPa SW 4.7 km/h 12.7 km/h 64 % 0 mm
13:35 -14.7 °C -18.2 °C 34164.7 hPa ESE 6.8 km/h 19.6 km/h 64 % 0 mm
13:40 -14.7 °C -18.2 °C 34164.7 hPa SE 9.3 km/h 19.6 km/h 64 % 0 mm
13:45 -14.7 °C -18.2 °C 34164.7 hPa West 7.6 km/h 16.3 km/h 64 % 0 mm
13:50 -14.7 °C -18.2 °C 34164.7 hPa SSE 6 km/h 12.2 km/h 64 % 0 mm
13:55 -14.7 °C -18.2 °C 34164.7 hPa SE 6.8 km/h 16.3 km/h 64 % 0 mm
14:00 -14.7 °C -18.2 °C 34164.7 hPa SW 8.5 km/h 16.3 km/h 64 % 0 mm
14:05 -14.7 °C -18.2 °C 34164.7 hPa WSW 11.6 km/h 19.2 km/h 64 % 0 mm
14:10 -14.7 °C -18.2 °C 34130.9 hPa WSW 12.4 km/h 19.6 km/h 64 % 0 mm
14:15 -14.7 °C -18.2 °C 34130.9 hPa SW 9.3 km/h 19.6 km/h 64 % 0 mm
14:20 -14.7 °C -18.2 °C 34130.9 hPa WSW 6.8 km/h 11.1 km/h 64 % 0 mm
14:25 -14.7 °C -18.2 °C 34164.7 hPa WSW 5 km/h 17.9 km/h 64 % 0 mm
14:30 -14.7 °C -18.2 °C 34164.7 hPa WSW 6.8 km/h 19.2 km/h 64 % 0 mm
14:35 -14.7 °C -18.2 °C 34164.7 hPa SSW 7.2 km/h 19.2 km/h 64 % 0 mm
14:40 -14.8 °C -19.7 °C 34164.7 hPa SE 5.6 km/h 12.7 km/h 53 % 0 mm
14:45 -14.8 °C -19.7 °C 34164.7 hPa SW 6.3 km/h 15 km/h 53 % 0 mm
14:50 -14.8 °C -19.7 °C 34164.7 hPa WSW 8.2 km/h 15 km/h 53 % 0 mm
14:55 -15.1 °C -20.1 °C 34164.7 hPa WSW 10.3 km/h 14.5 km/h 52 % 0 mm
15:00 -15.2 °C -20.2 °C 34164.7 hPa SW 8.9 km/h 14 km/h 52 % 0 mm
15:05 -15.3 °C -20.3 °C 34164.7 hPa SW 5.6 km/h 8.9 km/h 52 % 0 mm
15:10 -15.3 °C -20.5 °C 34164.7 hPa SW 5.6 km/h 9.3 km/h 51 % 0 mm
15:15 -15.3 °C -20.5 °C 34164.7 hPa SW 5.5 km/h 9.3 km/h 51 % 0 mm
15:20 -15.3 °C -20.5 °C 34164.7 hPa WSW 2.9 km/h 5.6 km/h 51 % 0 mm
15:25 -15.3 °C -20.5 °C 34164.7 hPa West 2.9 km/h 6.9 km/h 51 % 0 mm
15:30 -15.3 °C -20.5 °C 34164.7 hPa WSW 3.9 km/h 6.9 km/h 51 % 0 mm
15:35 -15.7 °C -20.8 °C 34164.7 hPa WSW 1.6 km/h 6.4 km/h 51 % 0 mm
15:40 -15.7 °C -20.8 °C 34164.7 hPa Calm     51 % 0 mm
15:45 -15.7 °C -20.8 °C 34164.7 hPa Calm     51 % 0 mm
15:50 -15.8 °C -20.7 °C 34164.7 hPa Calm     52 % 0 mm
15:55 -15.8 °C -20.8 °C 34164.7 hPa Calm     52 % 0 mm
16:00 -15.8 °C -20.8 °C 34164.7 hPa SW 1 km/h 6.9 km/h 52 % 0 mm
16:05 -15.8 °C -20.8 °C 34164.7 hPa SW 1.3 km/h 6.9 km/h 52 % 0 mm
16:10 -16.1 °C -20.9 °C 34130.9 hPa SW 1.6 km/h 5.1 km/h 53 % 0 mm
16:15 -16.1 °C -20.9 °C 34130.9 hPa SW 3.7 km/h 5.6 km/h 53 % 0 mm
16:20 -16.2 °C -20.9 °C 34130.9 hPa SW 3.9 km/h 5.6 km/h 54 % 0 mm
16:25 -16.3 °C -20.9 °C 34130.9 hPa SW 1.8 km/h 5.6 km/h 54 % 0 mm
16:30 -16.3 °C -21 °C 34130.9 hPa West 1 km/h 6.9 km/h 54 % 0 mm
16:35 -16.4 °C -20.9 °C 34130.9 hPa WNW 3.9 km/h 8 km/h 55 % 0 mm
16:40 -16.4 °C -20.9 °C 34130.9 hPa NW 3.9 km/h 8 km/h 55 % 0 mm
16:45 -16.6 °C -21.1 °C 34130.9 hPa NW 2.9 km/h 7.6 km/h 55 % 0 mm
16:50 -16.6 °C -21.1 °C 34130.9 hPa NW 4.2 km/h 7.6 km/h 55 % 0 mm
16:55 -16.6 °C -21.1 °C 34130.9 hPa NW 2.1 km/h 7.6 km/h 55 % 0 mm
17:00 -16.6 °C -21.1 °C 34130.9 hPa NW 0.3 km/h 4.2 km/h 55 % 0 mm
17:05 -16.6 °C -21.1 °C 34130.9 hPa Calm     55 % 0 mm
17:10 -16.6 °C -21.1 °C 34130.9 hPa Calm     55 % 0 mm
17:15 -16.9 °C -21 °C 34130.9 hPa Calm     58 % 0 mm
17:20 -16.9 °C -21 °C 34130.9 hPa Calm   5.1 km/h 58 % 0 mm
17:25 -16.9 °C -21 °C 34130.9 hPa West 0.3 km/h 5.1 km/h 58 % 0 mm
17:30 -16.9 °C -21 °C 34130.9 hPa West 0.3 km/h 4.2 km/h 58 % 0 mm
17:35 -16.9 °C -21 °C 34130.9 hPa Calm     58 % 0 mm
17:40 -16.9 °C -21 °C 34164.7 hPa NNW 0.8 km/h 5.6 km/h 58 % 0 mm
17:45 -16.9 °C -21 °C 34164.7 hPa NNW 1 km/h 5.6 km/h 58 % 0 mm
17:50 -16.9 °C -21 °C 34164.7 hPa NNW 0.3 km/h 5.6 km/h 58 % 0 mm
17:54 -17.6 °C -21.3 °C 34164.7 hPa SW 0.3 km/h 5.6 km/h 61 % 0 mm
17:59 -17.6 °C -21.3 °C 34164.7 hPa SW 0.5 km/h 4.2 km/h 61 % 0 mm
18:04 -17.6 °C -21.3 °C 34164.7 hPa NW 0.3 km/h 3.4 km/h 61 % 0 mm
18:09 -17.6 °C -21.3 °C 34164.7 hPa SW 0.3 km/h 2.9 km/h 61 % 0 mm
18:14 -17.9 °C -21.4 °C 34164.7 hPa SW 1 km/h 5.1 km/h 63 % 0 mm
18:19 -17.9 °C -21.4 °C 34164.7 hPa SW 1.6 km/h 5.1 km/h 63 % 0 mm
18:24 -17.9 °C -21.4 °C 34164.7 hPa SW 0.8 km/h 4.2 km/h 63 % 0 mm
18:29 -17.9 °C -21.4 °C 34164.7 hPa Calm     63 % 0 mm
18:34 -17.9 °C -21.4 °C 34164.7 hPa Calm     63 % 0 mm
18:39 -17.9 °C -21.4 °C 34164.7 hPa Calm     63 % 0 mm
18:44 -18.4 °C -21.6 °C 34164.7 hPa Calm     65 % 0 mm
18:49 -18.4 °C -21.6 °C 34164.7 hPa Calm     65 % 0 mm
18:54 -18.6 °C -21.7 °C 34164.7 hPa Calm     66 % 0 mm
18:59 -18.6 °C -21.7 °C 34164.7 hPa Calm     66 % 0 mm
19:04 -18.6 °C -21.7 °C 34164.7 hPa Calm     66 % 0 mm
19:09 -18.7 °C -21.7 °C 34130.9 hPa Calm     67 % 0 mm
19:14 -18.7 °C -21.7 °C 34130.9 hPa Calm     67 % 0 mm
19:19 -18.7 °C -21.7 °C 34130.9 hPa Calm     67 % 0 mm
19:24 -18.9 °C -21.7 °C 34164.7 hPa Calm     68 % 0 mm
19:29 -18.9 °C -21.7 °C 34164.7 hPa Calm     69 % 0 mm
19:34 -19 °C -21.7 °C 34164.7 hPa Calm   5.1 km/h 69 % 0 mm
19:39 -19 °C -21.7 °C 34164.7 hPa SW 2.1 km/h 6.9 km/h 69 % 0 mm
19:44 -19 °C -21.7 °C 34164.7 hPa SSW 2.1 km/h 6.9 km/h 69 % 0 mm
19:49 -19.1 °C -21.7 °C 34164.7 hPa Calm     70 % 0 mm
19:54 -19.1 °C -21.7 °C 34164.7 hPa Calm     70 % 0 mm
19:59 -19.1 °C -21.6 °C 34164.7 hPa Calm     71 % 0 mm
20:04 -19.1 °C -21.6 °C 34164.7 hPa Calm     71 % 0 mm
20:09 -19.2 °C -21.7 °C 34130.9 hPa Calm     71 % 0 mm
20:14 -19.2 °C -21.6 °C 34130.9 hPa Calm     72 % 0 mm
20:19 -19.2 °C -21.6 °C 34130.9 hPa Calm     72 % 0 mm
20:24 -19.2 °C -21.6 °C 34130.9 hPa Calm     72 % 0 mm
20:29 -19.2 °C -21.6 °C 34130.9 hPa Calm     72 % 0 mm
20:34 -19.3 °C -21.6 °C 34130.9 hPa Calm     73 % 0 mm
20:39 -19.3 °C -21.6 °C 34130.9 hPa Calm     73 % 0 mm
20:44 -19.3 °C -21.6 °C 34130.9 hPa Calm     73 % 0 mm
20:49 -19.3 °C -21.6 °C 34130.9 hPa Calm     73 % 0 mm
20:54 -19.3 °C -21.6 °C 34130.9 hPa Calm     74 % 0 mm
20:59 -19.3 °C -21.6 °C 34130.9 hPa Calm     74 % 0 mm
21:04 -19.3 °C -21.6 °C 34130.9 hPa Calm     74 % 0 mm
21:09 -19.3 °C -21.6 °C 34130.9 hPa Calm     74 % 0 mm
21:14 -19.3 °C -21.4 °C 34130.9 hPa Calm     75 % 0 mm
21:19 -19.3 °C -21.4 °C 34130.9 hPa Calm     75 % 0 mm
21:24 -19.3 °C -21.4 °C 34130.9 hPa Calm     75 % 0 mm
21:29 -19.3 °C -21.4 °C 34130.9 hPa Calm     75 % 0 mm
21:34 -19.3 °C -21.3 °C 34130.9 hPa Calm     76 % 0 mm
21:39 -19.3 °C -21.3 °C 34130.9 hPa Calm     76 % 0 mm
21:44 -19.2 °C -21.2 °C 34130.9 hPa Calm     76 % 0 mm
21:49 -19.2 °C -21.2 °C 34130.9 hPa Calm     76 % 0 mm
21:54 -19.2 °C -21.2 °C 34130.9 hPa Calm     77 % 0 mm
22:00 -19.2 °C -21.1 °C 34130.9 hPa Calm     77 % 0 mm
22:05 -19.1 °C -21.1 °C 34130.9 hPa Calm     77 % 0 mm
22:10 -19.1 °C -21.1 °C 34130.9 hPa Calm     77 % 0 mm
22:15 -19.1 °C -20.9 °C 34130.9 hPa Calm     78 % 0 mm
22:20 -19.1 °C -20.9 °C 34130.9 hPa Calm     78 % 0 mm
22:25 -19.1 °C -20.9 °C 34130.9 hPa Calm     78 % 0 mm
22:30 -19.1 °C -20.9 °C 34130.9 hPa Calm     78 % 0 mm
22:35 -19 °C -20.7 °C 34130.9 hPa Calm     79 % 0 mm
22:40 -18.9 °C -20.7 °C 34130.9 hPa Calm     79 % 0 mm
22:45 -18.9 °C -20.7 °C 34130.9 hPa Calm     79 % 0 mm
22:50 -18.9 °C -20.7 °C 34130.9 hPa Calm     79 % 0 mm
22:55 -18.8 °C -20.6 °C 34130.9 hPa Calm     79 % 0 mm
23:00 -18.8 °C -20.6 °C 34130.9 hPa Calm     79 % 0 mm
23:05 -18.8 °C -20.6 °C 34130.9 hPa Calm     79 % 0 mm
23:10 -18.8 °C -20.5 °C 34130.9 hPa Calm     79 % 0 mm
23:15 -18.8 °C -20.4 °C 34130.9 hPa Calm     80 % 0 mm
23:20 -18.8 °C -20.4 °C 34130.9 hPa Calm     80 % 0 mm
23:25 -18.7 °C -20.4 °C 34130.9 hPa Calm     80 % 0 mm
23:30 -18.7 °C -20.4 °C 34130.9 hPa Calm     80 % 0 mm
23:35 -18.7 °C -20.4 °C 34130.9 hPa Calm     80 % 0 mm
23:40 -18.7 °C -20.3 °C 34130.9 hPa Calm     80 % 0 mm
23:45 -18.7 °C -20.3 °C 34130.9 hPa Calm     80 % 0 mm
23:50 -18.7 °C -20.3 °C 34130.9 hPa Calm     80 % 0 mm
23:55 -18.7 °C -20.3 °C 34097 hPa Calm     80 % 0 mm
Vremenska postaja Senovo
Podatki zbrani iz Weather Underground - 3 mb

Script developed by  Jim McMurry - jmcmurry@mwt.net Adapted for the template by  Wim van der Kuil - Leuven-Template.eu

Vremenski podatki so objavljeni na:

European Weather Network

WeatherCloud

Weather Underground

AWEKAS

HAMweather, WeatherForYou, PWS Weather

MapView

Geostik

Slovenia weather network

Oprema, ki se uporablja:

Vremenski program
Cumulus

Vremenski server
Asus

Cumulus

Asus